Celebrity Constellation — 9HJB9 — position and weather

sailwx.info

Track history (hours):
 
Tides and Currents Weather Stations Pressure Air Temp Water Temp Dewpoint Dewpoint Depression Visibility Wind Speed Wind Dir Waves Ship Positions

Celebrity Constellation

Last reported at 2017-Jun-28 16:49 UTC. Time now 2017-Jun-28 17:17 UTC.
Position N 43°04' E 005°58'.

Length 294 m; draft 8.3 m.

Type: Passenger vessel. MMSI: 249046000.

Date/timePositionNaut miles runAvg speedWind from/ knotsBaromVisibWave heightAir tempDewpointWater temp
2017-Jun-28 16:49N 43°04' E 005°58'3 8.3
2017-Jun-28 16:30N 43°06' E 005°55'1 0.4
2017-Jun-28 14:00N 43°06' E 005°54'0 0.0 270 / 211015.0 5.4 22.019.022.0
2017-Jun-28 05:46N 43°06' E 005°54'0 0.0
2017-Jun-28 05:28N 43°06' E 005°54'0 0.0
2017-Jun-28 04:58N 43°06' E 005°54'0 0.0
2017-Jun-28 04:30N 43°06' E 005°54'1 1.7
2017-Jun-28 04:01N 43°06' E 005°55'3 6.3
2017-Jun-28 03:30N 43°05' E 005°59'11 8.3
2017-Jun-28 02:13N 42°57' E 006°09'7 5.8
2017-Jun-28 01:00N 42°54' E 006°18'1714.6 040 / 71005.0 5.4 23.020.122.0
2017-Jun-27 23:50N 42°57' E 006°41'410.6
2017-Jun-27 23:26N 42°58' E 006°46'1510.5
2017-Jun-27 21:59N 43°07' E 007°03'510.3
2017-Jun-27 21:30N 43°10' E 007°09'510.4
2017-Jun-27 21:00N 43°14' E 007°13'22 2.0
2017-Jun-27 10:00N 43°36' E 007°18'3 0.5 050 / 111009.010.8 27.024.323.0
2017-Jun-27 03:36N 43°39' E 007°21'1 7.1
2017-Jun-27 03:30N 43°38' E 007°21'14 9.5
2017-Jun-27 02:01N 43°38' E 007°41'4150.1
2017-Jun-27 02:00N 43°36' E 007°36'636.1 060 / 111008.0 5.4 22.019.020.0
2017-Jun-27 01:50N 43°38' E 007°44'310.3
2017-Jun-27 01:30N 43°38' E 007°48'510.3
2017-Jun-27 01:00N 43°37' E 007°55'1910.0
2017-Jun-26 23:07N 43°43' E 008°20'110.3
2017-Jun-26 23:00N 43°43' E 008°21'510.3
2017-Jun-26 22:30N 43°47' E 008°26'510.8
2017-Jun-26 22:00N 43°50' E 008°32'510.9
2017-Jun-26 21:30N 43°54' E 008°38'510.7
2017-Jun-26 21:00N 43°57' E 008°44'510.5
2017-Jun-26 20:30N 44°00' E 008°50'510.2
2017-Jun-26 20:00N 44°04' E 008°55'510.0
2017-Jun-26 19:30N 44°07' E 009°00'510.0
2017-Jun-26 19:00N 44°10' E 009°06'510.0
2017-Jun-26 18:30N 44°13' E 009°11'5 9.4
2017-Jun-26 18:00N 44°17' E 009°15'2 4.8
2017-Jun-26 17:30N 44°19' E 009°14'0 0.1
2017-Jun-26 16:54N 44°19' E 009°14'0 0.0
2017-Jun-26 16:24N 44°19' E 009°14'1 3.4
2017-Jun-26 16:00N 44°18' E 009°12'116.7 250 / 111013.0 31.027.029.0
2017-Jun-26 15:54N 44°19' E 009°14'0 0.1
2017-Jun-26 15:27N 44°19' E 009°14'0 0.1
2017-Jun-26 14:57N 44°19' E 009°14'0 0.0
2017-Jun-26 14:30N 44°19' E 009°14'0 0.0
2017-Jun-26 13:21N 44°19' E 009°14'0 0.0
2017-Jun-26 12:48N 44°19' E 009°14'0 0.0
2017-Jun-26 12:30N 44°19' E 009°14'0 0.0
2017-Jun-26 12:00N 44°19' E 009°14'0 0.0
2017-Jun-26 11:30N 44°19' E 009°14'0 0.0
2017-Jun-26 11:00N 44°19' E 009°14'0 0.1
2017-Jun-26 10:15N 44°19' E 009°14'0 0.2
2017-Jun-26 10:00N 44°19' E 009°14'0 0.0
2017-Jun-26 08:51N 44°19' E 009°14'0 0.1
2017-Jun-26 08:09N 44°19' E 009°14'0 0.1
2017-Jun-26 07:57N 44°19' E 009°14'0 0.0
2017-Jun-26 07:15N 44°19' E 009°14'0 0.1
2017-Jun-26 06:57N 44°19' E 009°14'0 0.0
2017-Jun-26 06:27N 44°19' E 009°14'0 0.0
2017-Jun-26 06:00N 44°19' E 009°14'0 0.0
2017-Jun-26 04:29N 44°19' E 009°14'0 0.3
2017-Jun-26 04:01N 44°19' E 009°14'4 7.7
2017-Jun-26 03:31N 44°16' E 009°17'5 9.3
2017-Jun-26 03:00N 44°11' E 009°19'4 8.7
2017-Jun-26 02:30N 44°07' E 009°21'4 8.3
2017-Jun-26 02:01N 44°03' E 009°22'4 8.6
2017-Jun-26 01:30N 43°59' E 009°24'5 9.0
2017-Jun-26 01:00N 43°55' E 009°27'4 9.0
2017-Jun-26 00:30N 43°51' E 009°29'4 8.9
2017-Jun-26 00:00N 43°47' E 009°32'4 8.8
2017-Jun-25 23:31N 43°43' E 009°35'4 8.6
2017-Jun-25 23:00N 43°39' E 009°37'4 8.0
2017-Jun-25 22:30N 43°35' E 009°40'3 5.6
2017-Jun-25 22:00N 43°34' E 009°43'3 5.5
2017-Jun-25 21:30N 43°33' E 009°47'3 5.3
2017-Jun-25 21:00N 43°32' E 009°50'3 5.3
2017-Jun-25 20:30N 43°31' E 009°54'3 5.2
2017-Jun-25 20:00N 43°30' E 009°57'3 5.3
2017-Jun-25 19:30N 43°30' E 010°01'3 5.6
2017-Jun-25 19:00N 43°30' E 010°05'3 5.7
2017-Jun-25 18:30N 43°30' E 010°09'3 5.6
2017-Jun-25 18:00N 43°31' E 010°12'3 5.9
2017-Jun-25 17:30N 43°32' E 010°16'2 3.7
2017-Jun-25 16:58N 43°33' E 010°18'0 0.0
2017-Jun-25 16:25N 43°33' E 010°18'0 0.0
2017-Jun-25 15:55N 43°33' E 010°18'0 0.0
2017-Jun-25 15:28N 43°33' E 010°18'0 0.0
2017-Jun-25 14:55N 43°33' E 010°18'0 0.0
2017-Jun-25 14:28N 43°33' E 010°18'511.3
2017-Jun-25 14:00N 43°30' E 010°12'510.4 250 / 51014.0 31.027.026.0
2017-Jun-25 13:28N 43°33' E 010°18'0 0.0
2017-Jun-25 12:55N 43°33' E 010°18'0 0.0
2017-Jun-25 12:28N 43°33' E 010°18'0 0.0
2017-Jun-25 12:00N 43°33' E 010°18'0 0.0
2017-Jun-25 11:30N 43°33' E 010°18'0 0.0
2017-Jun-25 11:00N 43°33' E 010°18'0 0.0
2017-Jun-25 10:30N 43°33' E 010°18'0 0.0
2017-Jun-25 10:00N 43°33' E 010°18'0 0.0
2017-Jun-25 09:30N 43°33' E 010°18'0 0.0
2017-Jun-25 09:00N 43°33' E 010°18'0 0.0
2017-Jun-25 08:30N 43°33' E 010°18'0 0.0
2017-Jun-25 08:00N 43°33' E 010°18'0 0.0
2017-Jun-25 07:30N 43°33' E 010°18'0 0.0
2017-Jun-25 06:57N 43°33' E 010°18'0 0.0
2017-Jun-25 06:30N 43°33' E 010°18'0 0.0
2017-Jun-25 06:00N 43°33' E 010°18'0 0.0
2017-Jun-25 05:30N 43°33' E 010°18'0 0.0
2017-Jun-25 05:00N 43°33' E 010°18'1 2.3
2017-Jun-25 04:30N 43°32' E 010°17'2 4.2
2017-Jun-25 03:59N 43°31' E 010°15'4 8.0
2017-Jun-25 03:30N 43°27' E 010°13'611.4
2017-Jun-25 03:00N 43°22' E 010°11'611.6
2017-Jun-25 02:30N 43°16' E 010°10'611.4
2017-Jun-25 02:00N 43°11' E 010°08'5296.6
2017-Jun-25 02:00N 43°06' E 010°06'1 1.9 280 / 71016.0 5.4 23.020.121.0
2017-Jun-25 01:30N 43°05' E 010°06'611.7
2017-Jun-25 01:01N 42°59' E 010°04'611.6
2017-Jun-25 00:27N 42°53' E 010°03'511.4
2017-Jun-24 23:59N 42°48' E 010°01'710.9
2017-Jun-24 23:21N 42°42' E 010°05'1111.7
2017-Jun-24 22:27N 42°34' E 010°15'511.9
2017-Jun-24 22:00N 42°30' E 010°20'612.0
2017-Jun-24 21:28N 42°25' E 010°26'612.0
2017-Jun-24 21:00N 42°20' E 010°30'612.2
2017-Jun-24 20:30N 42°15' E 010°33'612.2
2017-Jun-24 20:00N 42°10' E 010°37'611.7
2017-Jun-24 19:27N 42°05' E 010°44'911.9
2017-Jun-24 18:44N 42°03' E 010°55'312.0
2017-Jun-24 18:30N 42°02' E 010°58'712.1
2017-Jun-24 17:56N 42°01' E 011°07'512.1
2017-Jun-24 17:30N 41°59' E 011°14'711.6
2017-Jun-24 16:55N 41°59' E 011°23'16 1.2
2017-Jun-24 04:00N 42°06' E 011°42'11213.6 350 / 21019.0 26.024.623.0
2017-Jun-23 19:44N 40°50' E 013°32'521.6
2017-Jun-23 19:29N 40°47' E 013°37'1021.4
2017-Jun-23 19:01N 40°40' E 013°47'1020.5
2017-Jun-23 18:30N 40°38' E 014°01'918.4
2017-Jun-23 18:00N 40°43' E 014°10'815.8
2017-Jun-23 17:30N 40°50' E 014°17'1 1.6
2017-Jun-23 16:52N 40°50' E 014°16'0 0.0
2017-Jun-23 16:28N 40°50' E 014°16'0 0.0
2017-Jun-23 15:16N 40°50' E 014°16'412.6
2017-Jun-23 15:00N 40°48' E 014°12'4209.9 180 / 101019.0 27.025.625.0
2017-Jun-23 14:58N 40°50' E 014°16'0 0.0
2017-Jun-23 13:58N 40°50' E 014°16'0 0.0
2017-Jun-23 12:16N 40°50' E 014°16'0 0.0
2017-Jun-23 06:07N 40°50' E 014°16'0 0.0
2017-Jun-23 05:40N 40°50' E 014°16'0 0.0
2017-Jun-23 05:28N 40°50' E 014°16'1 1.0
2017-Jun-23 04:32N 40°50' E 014°17'1 2.7
2017-Jun-23 04:15N 40°49' E 014°17'10815.5
2017-Jun-22 21:19N 39°09' E 015°11'516.8
2017-Jun-22 21:00N 39°05' E 015°14'3517.1
2017-Jun-22 18:59N 38°33' E 015°32'817.2
2017-Jun-22 18:30N 38°26' E 015°38'1313.6
2017-Jun-22 17:34N 38°13' E 015°37'117.0
2017-Jun-22 17:30N 38°12' E 015°37'815.0
2017-Jun-22 17:00N 38°05' E 015°34'1018.2
2017-Jun-22 16:27N 37°56' E 015°29'68 4.4
2017-Jun-22 01:00N 36°48' E 015°18'411.6 250 / 71015.0 5.4 23.020.120.0
2017-Jun-22 00:38N 36°44' E 015°17'215.2
2017-Jun-22 00:29N 36°42' E 015°16'2314.8
2017-Jun-21 22:56N 36°22' E 015°01'613.4
2017-Jun-21 22:30N 36°18' E 014°57'713.3
2017-Jun-21 22:00N 36°12' E 014°51'713.2
2017-Jun-21 21:30N 36°07' E 014°46'714.1
2017-Jun-21 21:00N 36°02' E 014°41'815.1
2017-Jun-21 20:30N 35°56' E 014°35'9 0.5
2017-Jun-21 03:00N 35°48' E 014°30'0 0.0 320 / 71021.0 25.022.221.0
2017-Jun-20 15:00N 35°48' E 014°30'6 0.5 050 / 101017.0 26.024.625.0
2017-Jun-20 04:14N 35°54' E 014°31'0 2.2
2017-Jun-20 04:00N 35°54' E 014°32'4 8.1
2017-Jun-20 03:31N 35°57' E 014°35'610.9
2017-Jun-20 03:00N 36°01' E 014°40'612.5
2017-Jun-20 02:31N 36°05' E 014°45'612.5
2017-Jun-20 02:00N 36°10' E 014°50'612.6
2017-Jun-20 01:30N 36°15' E 014°55'613.0
2017-Jun-20 01:00N 36°20' E 014°60'101583.6
2017-Jun-20 01:00N 36°12' E 014°54'1632.4 300 / 131019.0 5.4 23.020.121.0
2017-Jun-20 00:30N 36°25' E 015°05'612.4
2017-Jun-20 00:00N 36°30' E 015°10'612.5
2017-Jun-19 23:30N 36°35' E 015°15'612.4
2017-Jun-19 23:00N 36°40' E 015°19'612.1
2017-Jun-19 22:30N 36°44' E 015°24'612.2
2017-Jun-19 22:00N 36°49' E 015°29'9912.4
2017-Jun-19 14:00N 38°06' E 016°48'16113.4 1015.0 5.4 39.0 20.0
2017-Jun-19 02:00N 40°24' E 018°36'   010 / 201015.0 2.2 22.019.020.0
Track history (hours):
 
Tides and Currents Weather Stations Pressure Air Temp Water Temp Dewpoint Dewpoint Depression Visibility Wind Speed Wind Dir Waves Ship Positions

Celebrity Constellation

Last reported at 2017-Jun-28 16:49 UTC. Time now 2017-Jun-28 17:17 UTC.
Position N 43°04' E 005°58'.

Length 294 m; draft 8.3 m.

Type: Passenger vessel. MMSI: 249046000.

Date/timePositionNaut miles runAvg speedWind from/ knotsBaromVisibWave heightAir tempDewpointWater temp
2017-Jun-28 16:49N 43°04' E 005°58'3 8.3
2017-Jun-28 16:30N 43°06' E 005°55'1 0.4
2017-Jun-28 14:00N 43°06' E 005°54'0 0.0 270 / 211015.0 5.4 22.019.022.0
2017-Jun-28 05:46N 43°06' E 005°54'0 0.0
2017-Jun-28 05:28N 43°06' E 005°54'0 0.0
2017-Jun-28 04:58N 43°06' E 005°54'0 0.0
2017-Jun-28 04:30N 43°06' E 005°54'1 1.7
2017-Jun-28 04:01N 43°06' E 005°55'3 6.3
2017-Jun-28 03:30N 43°05' E 005°59'11 8.3
2017-Jun-28 02:13N 42°57' E 006°09'7 5.8
2017-Jun-28 01:00N 42°54' E 006°18'1714.6 040 / 71005.0 5.4 23.020.122.0
2017-Jun-27 23:50N 42°57' E 006°41'410.6
2017-Jun-27 23:26N 42°58' E 006°46'1510.5
2017-Jun-27 21:59N 43°07' E 007°03'510.3
2017-Jun-27 21:30N 43°10' E 007°09'510.4
2017-Jun-27 21:00N 43°14' E 007°13'22 2.0
2017-Jun-27 10:00N 43°36' E 007°18'3 0.5 050 / 111009.010.8 27.024.323.0
2017-Jun-27 03:36N 43°39' E 007°21'1 7.1
2017-Jun-27 03:30N 43°38' E 007°21'14 9.5
2017-Jun-27 02:01N 43°38' E 007°41'4150.1
2017-Jun-27 02:00N 43°36' E 007°36'636.1 060 / 111008.0 5.4 22.019.020.0
2017-Jun-27 01:50N 43°38' E 007°44'310.3
2017-Jun-27 01:30N 43°38' E 007°48'510.3
2017-Jun-27 01:00N 43°37' E 007°55'1910.0
2017-Jun-26 23:07N 43°43' E 008°20'110.3
2017-Jun-26 23:00N 43°43' E 008°21'510.3
2017-Jun-26 22:30N 43°47' E 008°26'510.8
2017-Jun-26 22:00N 43°50' E 008°32'510.9
2017-Jun-26 21:30N 43°54' E 008°38'510.7
2017-Jun-26 21:00N 43°57' E 008°44'510.5
2017-Jun-26 20:30N 44°00' E 008°50'510.2
2017-Jun-26 20:00N 44°04' E 008°55'510.0
2017-Jun-26 19:30N 44°07' E 009°00'510.0
2017-Jun-26 19:00N 44°10' E 009°06'510.0
2017-Jun-26 18:30N 44°13' E 009°11'5 9.4
2017-Jun-26 18:00N 44°17' E 009°15'2 4.8
2017-Jun-26 17:30N 44°19' E 009°14'0 0.1
2017-Jun-26 16:54N 44°19' E 009°14'0 0.0
2017-Jun-26 16:24N 44°19' E 009°14'1 3.4
2017-Jun-26 16:00N 44°18' E 009°12'116.7 250 / 111013.0 31.027.029.0
2017-Jun-26 15:54N 44°19' E 009°14'0 0.1
2017-Jun-26 15:27N 44°19' E 009°14'0 0.1
2017-Jun-26 14:57N 44°19' E 009°14'0 0.0
2017-Jun-26 14:30N 44°19' E 009°14'0 0.0
2017-Jun-26 13:21N 44°19' E 009°14'0 0.0
2017-Jun-26 12:48N 44°19' E 009°14'0 0.0
2017-Jun-26 12:30N 44°19' E 009°14'0 0.0
2017-Jun-26 12:00N 44°19' E 009°14'0 0.0
2017-Jun-26 11:30N 44°19' E 009°14'0 0.0
2017-Jun-26 11:00N 44°19' E 009°14'0 0.1
2017-Jun-26 10:15N 44°19' E 009°14'0 0.2
2017-Jun-26 10:00N 44°19' E 009°14'0 0.0
2017-Jun-26 08:51N 44°19' E 009°14'0 0.1
2017-Jun-26 08:09N 44°19' E 009°14'0 0.1
2017-Jun-26 07:57N 44°19' E 009°14'0 0.0
2017-Jun-26 07:15N 44°19' E 009°14'0 0.1
2017-Jun-26 06:57N 44°19' E 009°14'0 0.0
2017-Jun-26 06:27N 44°19' E 009°14'0 0.0
2017-Jun-26 06:00N 44°19' E 009°14'0 0.0
2017-Jun-26 04:29N 44°19' E 009°14'0 0.3
2017-Jun-26 04:01N 44°19' E 009°14'4 7.7
2017-Jun-26 03:31N 44°16' E 009°17'5 9.3
2017-Jun-26 03:00N 44°11' E 009°19'4 8.7
2017-Jun-26 02:30N 44°07' E 009°21'4 8.3
2017-Jun-26 02:01N 44°03' E 009°22'4 8.6
2017-Jun-26 01:30N 43°59' E 009°24'5 9.0
2017-Jun-26 01:00N 43°55' E 009°27'4 9.0
2017-Jun-26 00:30N 43°51' E 009°29'4 8.9
2017-Jun-26 00:00N 43°47' E 009°32'4 8.8
2017-Jun-25 23:31N 43°43' E 009°35'4 8.6
2017-Jun-25 23:00N 43°39' E 009°37'4 8.0
2017-Jun-25 22:30N 43°35' E 009°40'3 5.6
2017-Jun-25 22:00N 43°34' E 009°43'3 5.5
2017-Jun-25 21:30N 43°33' E 009°47'3 5.3
2017-Jun-25 21:00N 43°32' E 009°50'3 5.3
2017-Jun-25 20:30N 43°31' E 009°54'3 5.2
2017-Jun-25 20:00N 43°30' E 009°57'3 5.3
2017-Jun-25 19:30N 43°30' E 010°01'3 5.6
2017-Jun-25 19:00N 43°30' E 010°05'3 5.7
2017-Jun-25 18:30N 43°30' E 010°09'3 5.6
2017-Jun-25 18:00N 43°31' E 010°12'3 5.9
2017-Jun-25 17:30N 43°32' E 010°16'2 3.7
2017-Jun-25 16:58N 43°33' E 010°18'0 0.0
2017-Jun-25 16:25N 43°33' E 010°18'0 0.0
2017-Jun-25 15:55N 43°33' E 010°18'0 0.0
2017-Jun-25 15:28N 43°33' E 010°18'0 0.0
2017-Jun-25 14:55N 43°33' E 010°18'0 0.0
2017-Jun-25 14:28N 43°33' E 010°18'511.3
2017-Jun-25 14:00N 43°30' E 010°12'510.4 250 / 51014.0 31.027.026.0
2017-Jun-25 13:28N 43°33' E 010°18'0 0.0
2017-Jun-25 12:55N 43°33' E 010°18'0 0.0
2017-Jun-25 12:28N 43°33' E 010°18'0 0.0
2017-Jun-25 12:00N 43°33' E 010°18'0 0.0
2017-Jun-25 11:30N 43°33' E 010°18'0 0.0
2017-Jun-25 11:00N 43°33' E 010°18'0 0.0
2017-Jun-25 10:30N 43°33' E 010°18'0 0.0
2017-Jun-25 10:00N 43°33' E 010°18'0 0.0
2017-Jun-25 09:30N 43°33' E 010°18'0 0.0
2017-Jun-25 09:00N 43°33' E 010°18'0 0.0
2017-Jun-25 08:30N 43°33' E 010°18'0 0.0
2017-Jun-25 08:00N 43°33' E 010°18'0 0.0
2017-Jun-25 07:30N 43°33' E 010°18'0 0.0
2017-Jun-25 06:57N 43°33' E 010°18'0 0.0
2017-Jun-25 06:30N 43°33' E 010°18'0 0.0
2017-Jun-25 06:00N 43°33' E 010°18'0 0.0
2017-Jun-25 05:30N 43°33' E 010°18'0 0.0
2017-Jun-25 05:00N 43°33' E 010°18'1 2.3
2017-Jun-25 04:30N 43°32' E 010°17'2 4.2
2017-Jun-25 03:59N 43°31' E 010°15'4 8.0
2017-Jun-25 03:30N 43°27' E 010°13'611.4
2017-Jun-25 03:00N 43°22' E 010°11'611.6
2017-Jun-25 02:30N 43°16' E 010°10'611.4
2017-Jun-25 02:00N 43°11' E 010°08'5296.6
2017-Jun-25 02:00N 43°06' E 010°06'1 1.9 280 / 71016.0 5.4 23.020.121.0
2017-Jun-25 01:30N 43°05' E 010°06'611.7
2017-Jun-25 01:01N 42°59' E 010°04'611.6
2017-Jun-25 00:27N 42°53' E 010°03'511.4
2017-Jun-24 23:59N 42°48' E 010°01'710.9
2017-Jun-24 23:21N 42°42' E 010°05'1111.7
2017-Jun-24 22:27N 42°34' E 010°15'511.9
2017-Jun-24 22:00N 42°30' E 010°20'612.0
2017-Jun-24 21:28N 42°25' E 010°26'612.0
2017-Jun-24 21:00N 42°20' E 010°30'612.2
2017-Jun-24 20:30N 42°15' E 010°33'612.2
2017-Jun-24 20:00N 42°10' E 010°37'611.7
2017-Jun-24 19:27N 42°05' E 010°44'911.9
2017-Jun-24 18:44N 42°03' E 010°55'312.0
2017-Jun-24 18:30N 42°02' E 010°58'712.1
2017-Jun-24 17:56N 42°01' E 011°07'512.1
2017-Jun-24 17:30N 41°59' E 011°14'711.6
2017-Jun-24 16:55N 41°59' E 011°23'16 1.2
2017-Jun-24 04:00N 42°06' E 011°42'11213.6 350 / 21019.0 26.024.623.0
2017-Jun-23 19:44N 40°50' E 013°32'521.6
2017-Jun-23 19:29N 40°47' E 013°37'1021.4
2017-Jun-23 19:01N 40°40' E 013°47'1020.5
2017-Jun-23 18:30N 40°38' E 014°01'918.4
2017-Jun-23 18:00N 40°43' E 014°10'815.8
2017-Jun-23 17:30N 40°50' E 014°17'1 1.6
2017-Jun-23 16:52N 40°50' E 014°16'0 0.0
2017-Jun-23 16:28N 40°50' E 014°16'0 0.0
2017-Jun-23 15:16N 40°50' E 014°16'412.6
2017-Jun-23 15:00N 40°48' E 014°12'4209.9 180 / 101019.0 27.025.625.0
2017-Jun-23 14:58N 40°50' E 014°16'0 0.0
2017-Jun-23 13:58N 40°50' E 014°16'0 0.0
2017-Jun-23 12:16N 40°50' E 014°16'0 0.0
2017-Jun-23 06:07N 40°50' E 014°16'0 0.0
2017-Jun-23 05:40N 40°50' E 014°16'0 0.0
2017-Jun-23 05:28N 40°50' E 014°16'1 1.0
2017-Jun-23 04:32N 40°50' E 014°17'1 2.7
2017-Jun-23 04:15N 40°49' E 014°17'10815.5
2017-Jun-22 21:19N 39°09' E 015°11'516.8
2017-Jun-22 21:00N 39°05' E 015°14'3517.1
2017-Jun-22 18:59N 38°33' E 015°32'817.2
2017-Jun-22 18:30N 38°26' E 015°38'1313.6
2017-Jun-22 17:34N 38°13' E 015°37'117.0
2017-Jun-22 17:30N 38°12' E 015°37'815.0
2017-Jun-22 17:00N 38°05' E 015°34'1018.2
2017-Jun-22 16:27N 37°56' E 015°29'68 4.4
2017-Jun-22 01:00N 36°48' E 015°18'411.6 250 / 71015.0 5.4 23.020.120.0
2017-Jun-22 00:38N 36°44' E 015°17'215.2
2017-Jun-22 00:29N 36°42' E 015°16'2314.8
2017-Jun-21 22:56N 36°22' E 015°01'613.4
2017-Jun-21 22:30N 36°18' E 014°57'713.3
2017-Jun-21 22:00N 36°12' E 014°51'713.2
2017-Jun-21 21:30N 36°07' E 014°46'714.1
2017-Jun-21 21:00N 36°02' E 014°41'815.1
2017-Jun-21 20:30N 35°56' E 014°35'9 0.5
2017-Jun-21 03:00N 35°48' E 014°30'0 0.0 320 / 71021.0 25.022.221.0
2017-Jun-20 15:00N 35°48' E 014°30'6 0.5 050 / 101017.0 26.024.625.0
2017-Jun-20 04:14N 35°54' E 014°31'0 2.2
2017-Jun-20 04:00N 35°54' E 014°32'4 8.1
2017-Jun-20 03:31N 35°57' E 014°35'610.9
2017-Jun-20 03:00N 36°01' E 014°40'612.5
2017-Jun-20 02:31N 36°05' E 014°45'612.5
2017-Jun-20 02:00N 36°10' E 014°50'612.6
2017-Jun-20 01:30N 36°15' E 014°55'613.0
2017-Jun-20 01:00N 36°20' E 014°60'101583.6
2017-Jun-20 01:00N 36°12' E 014°54'1632.4 300 / 131019.0 5.4 23.020.121.0
2017-Jun-20 00:30N 36°25' E 015°05'612.4
2017-Jun-20 00:00N 36°30' E 015°10'612.5
2017-Jun-19 23:30N 36°35' E 015°15'612.4
2017-Jun-19 23:00N 36°40' E 015°19'612.1
2017-Jun-19 22:30N 36°44' E 015°24'612.2
2017-Jun-19 22:00N 36°49' E 015°29'9912.4
2017-Jun-19 14:00N 38°06' E 016°48'16113.4 1015.0 5.4 39.0 20.0
2017-Jun-19 02:00N 40°24' E 018°36'   010 / 201015.0 2.2 22.019.020.0

Dump ship's entire track history